createdAt,value
2022-11-03T00:00:57.885Z,3.97
2022-11-03T00:06:08.349Z,3.83
2022-11-03T00:11:13.358Z,3.97
2022-11-03T00:16:16.364Z,4.17
2022-11-03T00:21:21.334Z,3.53
2022-11-03T00:26:26.253Z,4.57
2022-11-03T00:31:30.824Z,4.00
2022-11-03T00:36:36.909Z,3.80
2022-11-03T00:41:40.521Z,3.93
2022-11-03T00:46:43.638Z,3.70
2022-11-03T00:51:47.990Z,3.77
2022-11-03T00:56:51.038Z,4.30
2022-11-03T01:01:54.168Z,4.37
2022-11-03T01:07:00.376Z,3.80
2022-11-03T01:12:05.702Z,3.03
2022-11-03T01:17:10.445Z,3.67
2022-11-03T01:22:15.819Z,3.73
2022-11-03T01:27:20.832Z,3.50
2022-11-03T01:32:23.829Z,3.60
2022-11-03T01:37:28.175Z,2.93
2022-11-03T01:42:31.173Z,2.17
2022-11-03T01:47:37.069Z,1.97
2022-11-03T01:52:45.982Z,2.17
2022-11-03T01:57:55.744Z,2.13
2022-11-03T02:02:59.360Z,2.40
2022-11-03T02:13:21.024Z,2.20
2022-11-03T02:18:29.174Z,2.03
2022-11-03T02:23:42.073Z,2.50
2022-11-03T02:28:46.673Z,2.83
2022-11-03T02:33:55.035Z,3.00
2022-11-03T02:39:02.682Z,2.53
2022-11-03T02:44:13.625Z,2.00
2022-11-03T02:49:16.814Z,2.60
2022-11-03T02:54:24.698Z,2.30
2022-11-03T02:59:33.225Z,3.40
2022-11-03T03:04:38.646Z,2.67
2022-11-03T03:09:45.641Z,2.33
2022-11-03T03:14:51.998Z,2.37
2022-11-03T03:20:00.559Z,2.70
2022-11-03T03:25:12.424Z,2.83
2022-11-03T03:30:18.590Z,2.93
2022-11-03T03:35:25.599Z,2.93
2022-11-03T03:40:33.010Z,3.00
2022-11-03T03:45:38.171Z,2.80
2022-11-03T03:50:43.851Z,4.40
2022-11-03T03:55:51.497Z,8.27
2022-11-03T04:00:55.978Z,9.40
2022-11-03T04:05:58.994Z,7.63
2022-11-03T04:11:19.181Z,4.53
2022-11-03T04:16:41.000Z,3.70
2022-11-03T04:22:01.314Z,3.10
2022-11-03T04:27:30.923Z,3.97
2022-11-03T04:32:35.741Z,3.97
2022-11-03T04:37:42.494Z,4.10
2022-11-03T04:42:47.974Z,2.80
2022-11-03T04:47:54.137Z,3.67
2022-11-03T04:52:59.109Z,3.20
2022-11-03T04:58:08.543Z,3.47
2022-11-03T05:03:16.190Z,4.43
2022-11-03T05:08:20.609Z,3.83
2022-11-03T05:13:26.739Z,4.70
2022-11-03T05:18:33.607Z,4.50
2022-11-03T05:23:40.521Z,3.77
2022-11-03T05:28:45.654Z,4.13
2022-11-03T05:33:51.658Z,4.40
2022-11-03T05:38:59.774Z,5.40
2022-11-03T05:44:06.491Z,4.90
2022-11-03T05:49:12.278Z,7.87
2022-11-03T05:54:22.080Z,5.70
2022-11-03T05:59:29.285Z,5.93
2022-11-03T06:04:38.054Z,5.93
2022-11-03T06:09:42.254Z,5.40
2022-11-03T06:14:45.416Z,6.90
2022-11-03T06:19:51.711Z,5.70
2022-11-03T06:24:57.745Z,22.30
2022-11-03T06:30:03.880Z,16.97
2022-11-03T06:35:13.206Z,12.00
2022-11-03T06:40:35.445Z,6.90
2022-11-03T06:45:38.459Z,8.80
2022-11-03T06:50:44.945Z,10.70
2022-11-03T06:55:49.594Z,8.30
2022-11-03T07:00:52.760Z,11.50
2022-11-03T07:06:03.243Z,8.77
2022-11-03T07:11:13.356Z,7.40
2022-11-03T07:16:21.152Z,7.07
2022-11-03T07:21:37.455Z,8.67
2022-11-03T07:26:40.679Z,7.63
2022-11-03T07:31:43.704Z,7.53
2022-11-03T07:36:52.722Z,8.93
2022-11-03T07:41:58.562Z,8.33
2022-11-03T07:47:11.994Z,7.80
2022-11-03T07:52:21.014Z,6.63
2022-11-03T07:57:27.386Z,6.60
2022-11-03T08:02:34.244Z,10.70
2022-11-03T08:07:38.553Z,9.40
2022-11-03T08:12:41.460Z,10.70
2022-11-03T08:17:44.393Z,13.70
2022-11-03T08:23:05.056Z,10.73
2022-11-03T08:28:11.564Z,11.00
2022-11-03T08:33:14.548Z,10.80
2022-11-03T08:38:18.900Z,11.77
2022-11-03T08:43:22.044Z,9.50
2022-11-03T08:48:28.166Z,8.70
2022-11-03T08:53:32.427Z,8.53
2022-11-03T08:58:36.199Z,10.50
2022-11-03T09:03:39.879Z,10.00
2022-11-03T09:14:07.325Z,22.53
2022-11-03T09:19:10.266Z,15.23
2022-11-03T09:24:14.551Z,9.13
2022-11-03T09:29:17.543Z,8.83
2022-11-03T09:34:20.471Z,7.50
2022-11-03T09:39:24.780Z,8.30
2022-11-03T09:44:28.363Z,7.27
2022-11-03T09:49:33.552Z,7.37
2022-11-03T09:54:37.847Z,7.63
2022-11-03T09:59:44.025Z,7.70
2022-11-03T10:04:46.929Z,7.10
2022-11-03T10:09:53.560Z,10.03
2022-11-03T10:14:56.689Z,7.60
2022-11-03T10:19:59.761Z,7.27
2022-11-03T10:25:35.413Z,7.20
2022-11-03T10:31:10.123Z,7.20
2022-11-03T10:36:26.892Z,4.60
2022-11-03T10:41:33.042Z,4.10
2022-11-03T10:46:50.174Z,4.20
2022-11-03T10:51:55.866Z,2.93
2022-11-03T10:57:00.158Z,2.87
2022-11-03T11:02:04.045Z,2.70
2022-11-03T11:07:19.465Z,2.00
2022-11-03T11:12:25.508Z,2.30
2022-11-03T11:17:46.704Z,3.03
2022-11-03T11:22:50.917Z,2.10
2022-11-03T11:27:59.045Z,2.30
2022-11-03T11:33:02.730Z,2.57
2022-11-03T11:38:43.073Z,1.93
2022-11-03T11:43:47.351Z,1.83
2022-11-03T11:48:52.182Z,1.93
2022-11-03T11:54:16.595Z,1.90
2022-11-03T11:59:25.139Z,2.00
2022-11-03T12:04:31.594Z,1.73
2022-11-03T12:09:35.071Z,2.30
2022-11-03T12:14:40.380Z,2.07
2022-11-03T12:19:44.891Z,2.33
2022-11-03T12:24:50.821Z,2.43
2022-11-03T12:29:56.896Z,2.83
2022-11-03T12:34:59.970Z,2.57
2022-11-03T12:40:02.988Z,2.40
2022-11-03T12:45:08.514Z,2.17
2022-11-03T12:50:11.557Z,2.90
2022-11-03T12:55:14.618Z,2.70
2022-11-03T13:00:19.474Z,2.63
2022-11-03T13:05:22.433Z,2.53
2022-11-03T13:10:25.364Z,2.80
2022-11-03T13:15:29.660Z,2.83
2022-11-03T13:20:32.778Z,2.70
2022-11-03T13:25:35.813Z,2.30
2022-11-03T13:30:41.432Z,2.70
2022-11-03T13:35:44.441Z,2.50
2022-11-03T13:40:56.936Z,2.80
2022-11-03T13:46:03.948Z,3.30
2022-11-03T13:51:10.605Z,3.40
2022-11-03T13:56:19.495Z,2.87
2022-11-03T14:01:26.495Z,3.50
2022-11-03T14:06:29.484Z,3.80
2022-11-03T14:11:49.919Z,3.70
2022-11-03T14:16:54.560Z,3.90
2022-11-03T14:21:57.584Z,4.10
2022-11-03T14:27:00.752Z,4.37
2022-11-03T14:32:05.879Z,3.63
2022-11-03T14:37:09.299Z,5.30
2022-11-03T14:42:16.703Z,4.70
2022-11-03T14:47:21.978Z,4.53
2022-11-03T14:52:24.932Z,5.03
2022-11-03T14:57:27.859Z,4.57
2022-11-03T15:02:32.645Z,5.20
2022-11-03T15:07:35.756Z,5.67
2022-11-03T15:12:38.666Z,4.70
2022-11-03T15:17:43.164Z,6.60
2022-11-03T15:28:09.508Z,6.37
2022-11-03T15:38:21.854Z,6.77
2022-11-03T15:43:24.903Z,10.20
2022-11-03T15:48:33.545Z,8.13
2022-11-03T15:53:37.791Z,13.90
2022-11-03T15:58:40.891Z,8.57
2022-11-03T16:03:45.216Z,8.90
2022-11-03T16:08:48.244Z,8.50
2022-11-03T16:13:51.660Z,8.10
2022-11-03T16:18:55.998Z,8.87
2022-11-03T16:23:59.368Z,8.50
2022-11-03T16:29:05.835Z,9.00
2022-11-03T16:34:10.324Z,9.10
2022-11-03T16:39:13.460Z,10.30
2022-11-03T16:44:16.544Z,13.47
2022-11-03T16:49:21.078Z,11.53
2022-11-03T16:54:24.044Z,10.17
2022-11-03T16:59:27.436Z,12.27
2022-11-03T17:04:32.008Z,12.13
2022-11-03T17:09:34.964Z,9.00
2022-11-03T17:14:37.975Z,46.10
2022-11-03T17:19:42.354Z,20.60
2022-11-03T17:24:45.326Z,12.60
2022-11-03T17:29:51.164Z,13.50
2022-11-03T17:34:55.816Z,19.40
2022-11-03T17:39:58.844Z,16.60
2022-11-03T17:45:02.122Z,25.33
2022-11-03T17:50:07.346Z,12.60
2022-11-03T17:55:18.049Z,9.90
2022-11-03T18:00:22.385Z,10.57
2022-11-03T18:05:30.265Z,10.80
2022-11-03T18:10:35.668Z,9.63
2022-11-03T18:15:41.637Z,9.70
2022-11-03T18:20:53.099Z,11.17
2022-11-03T18:25:56.855Z,12.37
2022-11-03T18:30:59.831Z,12.80
2022-11-03T18:36:06.631Z,22.93
2022-11-03T18:41:28.864Z,21.70
2022-11-03T18:46:31.835Z,24.67
2022-11-03T18:51:36.498Z,21.40
2022-11-03T18:56:39.475Z,16.80
2022-11-03T19:01:42.540Z,17.50
2022-11-03T19:06:48.685Z,18.33
2022-11-03T19:11:53.798Z,15.80
2022-11-03T19:22:27.550Z,16.63
2022-11-03T19:27:34.582Z,17.13
2022-11-03T19:32:42.695Z,16.80
2022-11-03T19:37:48.770Z,15.60
2022-11-03T19:42:52.682Z,15.53
2022-11-03T19:48:28.843Z,15.90
2022-11-03T19:53:27.172Z,14.60
2022-11-03T19:58:30.775Z,16.80
2022-11-03T20:03:33.741Z,19.80
2022-11-03T20:08:38.538Z,18.30
2022-11-03T20:13:43.811Z,17.10
2022-11-03T20:18:48.364Z,18.90
2022-11-03T20:23:52.963Z,23.27
2022-11-03T20:28:57.336Z,21.63
2022-11-03T20:34:00.255Z,20.57
2022-11-03T20:39:05.003Z,21.53
2022-11-03T20:44:07.909Z,19.97
2022-11-03T20:49:11.372Z,24.43
2022-11-03T20:54:18.425Z,23.30
2022-11-03T20:59:24.576Z,20.93
2022-11-03T21:04:29.110Z,21.37
2022-11-03T21:09:33.395Z,22.40
2022-11-03T21:14:36.500Z,22.43
2022-11-03T21:19:57.190Z,21.33
2022-11-03T21:25:01.495Z,20.70
2022-11-03T21:30:05.318Z,21.43
2022-11-03T21:35:12.014Z,21.60
2022-11-03T21:40:16.873Z,21.97
2022-11-03T21:45:20.368Z,22.73
2022-11-03T21:50:23.303Z,21.10
2022-11-03T21:55:28.976Z,21.73
2022-11-03T22:00:32.135Z,19.70
2022-11-03T22:05:35.112Z,20.07
2022-11-03T22:10:40.885Z,20.60
2022-11-03T22:16:01.525Z,20.07
2022-11-03T22:21:21.754Z,20.53
2022-11-03T22:26:43.934Z,20.33
2022-11-03T22:31:46.935Z,20.30
2022-11-03T22:36:49.839Z,18.90
2022-11-03T22:42:11.373Z,20.13
2022-11-03T22:47:17.444Z,20.10
2022-11-03T22:52:21.623Z,20.27
2022-11-03T22:57:25.953Z,17.97
2022-11-03T23:02:28.946Z,18.40
2022-11-03T23:07:35.797Z,17.37
2022-11-03T23:12:42.733Z,15.00
2022-11-03T23:18:03.273Z,15.33
2022-11-03T23:23:06.543Z,14.13
2022-11-03T23:28:11.066Z,14.73
2022-11-03T23:33:13.947Z,13.43
2022-11-03T23:38:16.886Z,14.50
2022-11-03T23:43:21.151Z,15.57
2022-11-03T23:48:41.428Z,13.53
2022-11-03T23:53:45.441Z,15.30
2022-11-03T23:58:50.837Z,13.90
